Time;durP1;ratioP1;P1;durP2;ratioP2;P2;SDS_P1;SDS_P2;PMS_P1;PMS_P2;Temp;Humidity;BMP_temperature;BMP_pressure;BME280_temperature;BME280_humidity;BME280_pressure;Samples;Min_cycle;Max_cycle;Signal;HPM_P1;HPM_P2
2023/02/24 00:01:07;;;;;;;;;;;;;;;8.98;74.08;100748.34;5020900;28;19913;-73
2023/02/24 00:03:59;;;;;;;;;;;;;;;9.09;73.61;100743.50;4998031;28;19914;-74
2023/02/24 00:06:49;;;;;;;;;;;;;;;9.14;73.39;100749.63;5014474;28;19913;-79
2023/02/24 00:09:41;;;;;;;;;;;;;;;8.98;73.50;100741.03;5021501;28;20329;-74
2023/02/24 00:12:33;;;;;;;;;;;;;;;9.19;72.32;100732.44;5016413;28;19913;-73
2023/02/24 00:15:25;;;;;;;;;;;;;;;9.09;73.68;100738.91;5014466;28;19913;-73
2023/02/24 00:18:17;;;;;;;;;;;;;;;9.11;72.66;100730.44;5017359;28;19913;-73
2023/02/24 00:21:10;;;;;;;;;;;;;;;9.34;71.43;100730.19;5015458;28;19914;-74
2023/02/24 00:24:02;;;;;;;;;;;;;;;9.34;71.23;100730.19;5018208;28;19913;-73
2023/02/24 00:26:58;;;;;;;;;;;;;;;9.27;71.12;100724.38;5017047;28;19921;-75
2023/02/24 00:29:50;;;;;;;;;;;;;;;9.20;72.32;100723.97;5027542;28;20393;-74
2023/02/24 00:32:45;;;;;;;;;;;;;;;9.05;72.55;100729.75;5014333;28;19925;-73
2023/02/24 00:35:34;;;;;;;;;;;;;;;9.16;72.49;100720.28;5017853;28;19913;-74
2023/02/24 00:38:27;;;;;;;;;;;;;;;9.23;71.45;100717.16;5012464;28;19918;-74
2023/02/24 00:41:23;;;;;;;;;;;;;;;9.24;71.59;100718.75;5001901;28;19913;-74
2023/02/24 00:44:15;;;;;;;;;;;;;;;9.40;70.54;100725.41;5008553;28;20371;-73
2023/02/24 00:47:08;;;;;;;;;;;;;;;9.26;71.85;100716.53;5016968;28;19914;-73
2023/02/24 00:50:00;;;;;;;;;;;;;;;9.24;71.26;100716.84;5020847;28;20305;-74
2023/02/24 00:52:52;;;;;;;;;;;;;;;9.15;71.24;100715.94;5013438;28;19917;-73
2023/02/24 00:55:41;;;;;;;;;;;;;;;9.22;71.13;100716.34;5016851;28;19913;-73
2023/02/24 00:58:33;;;;;;;;;;;;;;;8.93;72.34;100707.78;5008684;28;19913;-74
2023/02/24 01:01:25;;;;;;;;;;;;;;;9.06;71.54;100717.78;5014022;28;20378;-74
2023/02/24 01:04:18;;;;;;;;;;;;;;;9.19;70.49;100708.84;5017187;28;19914;-74
2023/02/24 01:07:11;;;;;;;;;;;;;;;9.16;70.42;100701.28;5019048;28;19914;-75
2023/02/24 01:10:03;;;;;;;;;;;;;;;8.90;72.02;100697.53;4998629;28;19917;-75
2023/02/24 01:12:55;;;;;;;;;;;;;;;8.86;71.25;100701.97;4995730;28;19917;-74
2023/02/24 01:15:47;;;;;;;;;;;;;;;8.60;72.92;100696.25;4993988;28;19918;-74
2023/02/24 01:18:41;;;;;;;;;;;;;;;8.66;73.34;100694.25;5013329;28;19914;-73
2023/02/24 01:21:33;;;;;;;;;;;;;;;8.68;72.65;100690.16;5018164;28;19913;-73
2023/02/24 01:24:25;;;;;;;;;;;;;;;8.76;72.15;100696.75;5021149;28;19913;-74
2023/02/24 01:27:15;;;;;;;;;;;;;;;8.46;73.45;100690.84;5016954;28;19914;-74
2023/02/24 01:30:07;;;;;;;;;;;;;;;8.99;71.55;100695.69;5018877;28;20513;-73
2023/02/24 01:32:59;;;;;;;;;;;;;;;8.65;72.47;100698.06;5013229;28;19913;-74
2023/02/24 01:35:52;;;;;;;;;;;;;;;8.62;72.48;100691.34;5012864;28;20394;-74
2023/02/24 01:38:41;;;;;;;;;;;;;;;8.78;72.26;100694.56;5012470;28;19914;-74
2023/02/24 01:41:33;;;;;;;;;;;;;;;8.77;72.03;100692.94;5017576;28;19913;-74
2023/02/24 01:44:26;;;;;;;;;;;;;;;8.78;72.12;100691.84;5014778;28;19913;-74
2023/02/24 01:47:19;;;;;;;;;;;;;;;8.83;72.28;100689.03;5013382;28;19913;-74
2023/02/24 01:50:11;;;;;;;;;;;;;;;8.69;72.50;100680.09;5019927;28;19917;-74
2023/02/24 01:53:06;;;;;;;;;;;;;;;8.70;72.14;100673.56;5012842;28;19913;-75
2023/02/24 01:55:58;;;;;;;;;;;;;;;8.57;72.77;100667.88;5019566;28;19914;-75
2023/02/24 01:58:49;;;;;;;;;;;;;;;8.56;72.94;100671.69;5014388;28;19913;-74
2023/02/24 02:01:41;;;;;;;;;;;;;;;8.41;73.52;100674.69;5012991;28;19913;-74
2023/02/24 02:04:46;;;;;;;;;;;;;;;8.44;73.87;100663.25;5019986;28;19914;-74
2023/02/24 02:07:33;;;;;;;;;;;;;;;8.58;73.34;100663.25;5009459;28;19913;-74
2023/02/24 02:10:25;;;;;;;;;;;;;;;8.52;73.80;100659.84;5018699;28;19918;-74
2023/02/24 02:13:19;;;;;;;;;;;;;;;8.45;74.39;100656.72;5012790;28;20378;-74
2023/02/24 02:16:22;;;;;;;;;;;;;;;8.19;75.94;100658.28;5011352;28;20357;-74
2023/02/24 02:19:28;;;;;;;;;;;;;;;8.34;75.04;100658.03;4997819;28;19914;-75
2023/02/24 02:22:30;;;;;;;;;;;;;;;8.35;74.51;100656.13;5012779;28;19914;-74
2023/02/24 02:25:26;;;;;;;;;;;;;;;8.25;75.69;100654.41;5012660;28;19913;-74
2023/02/24 02:28:18;;;;;;;;;;;;;;;8.31;76.73;100658.66;5004924;28;19913;-74
2023/02/24 02:31:19;;;;;;;;;;;;;;;7.99;77.36;100656.78;5017271;28;20549;-74
2023/02/24 02:34:15;;;;;;;;;;;;;;;8.02;78.32;100655.41;5012793;28;19913;-74
2023/02/24 02:37:09;;;;;;;;;;;;;;;8.24;76.12;100649.25;5012691;28;19921;-74
2023/02/24 02:40:19;;;;;;;;;;;;;;;8.34;75.02;100662.66;5016076;28;19914;-74
2023/02/24 02:43:33;;;;;;;;;;;;;;;8.39;74.92;100670.66;5016325;28;19917;-74
2023/02/24 02:46:33;;;;;;;;;;;;;;;8.49;74.86;100659.63;5018612;28;20290;-74
2023/02/24 02:49:29;;;;;;;;;;;;;;;8.44;74.08;100663.25;5013187;28;19921;-74
2023/02/24 02:52:23;;;;;;;;;;;;;;;8.35;74.18;100658.84;5030670;28;19914;-74
2023/02/24 02:55:16;;;;;;;;;;;;;;;8.32;74.65;100654.84;5018492;28;20285;-73
2023/02/24 02:58:09;;;;;;;;;;;;;;;8.38;75.41;100656.31;5016377;28;19914;-73
2023/02/24 03:01:03;;;;;;;;;;;;;;;8.61;75.16;100656.41;5018325;28;20382;-77
2023/02/24 03:03:56;;;;;;;;;;;;;;;8.85;73.66;100646.91;5016528;28;19913;-73
2023/02/24 03:06:46;;;;;;;;;;;;;;;8.85;73.34;100646.91;5020849;28;19913;-73
2023/02/24 03:09:40;;;;;;;;;;;;;;;8.94;72.79;100642.38;5017597;28;19917;-73
2023/02/24 03:12:31;;;;;;;;;;;;;;;8.96;73.71;100644.78;5018264;28;20290;-73
2023/02/24 03:15:24;;;;;;;;;;;;;;;8.92;73.00;100646.50;5019460;28;19914;-73
2023/02/24 03:18:16;;;;;;;;;;;;;;;8.85;71.80;100646.13;5017991;28;19913;-75
2023/02/24 03:21:12;;;;;;;;;;;;;;;8.68;71.83;100641.34;5020180;28;19913;-73
2023/02/24 03:24:04;;;;;;;;;;;;;;;8.50;73.99;100639.56;5017786;28;20286;-74
2023/02/24 03:27:01;;;;;;;;;;;;;;;8.66;75.20;100630.00;5015943;28;19917;-73
2023/02/24 03:29:58;;;;;;;;;;;;;;;8.83;73.77;100632.09;5019099;28;19917;-73
2023/02/24 03:32:56;;;;;;;;;;;;;;;8.73;72.53;100621.47;5022398;28;19913;-73
2023/02/24 03:35:48;;;;;;;;;;;;;;;9.06;71.92;100628.28;5025900;28;19913;-75
2023/02/24 03:38:41;;;;;;;;;;;;;;;8.79;72.10;100626.44;5012839;28;19913;-73
2023/02/24 03:41:36;;;;;;;;;;;;;;;8.50;72.56;100626.81;5027049;28;19917;-72
2023/02/24 03:44:29;;;;;;;;;;;;;;;8.32;73.92;100630.47;5030536;28;19913;-75
2023/02/24 03:47:21;;;;;;;;;;;;;;;8.23;72.50;100636.84;5023128;28;19913;-74
2023/02/24 03:50:17;;;;;;;;;;;;;;;7.76;75.85;100641.53;5029309;28;20309;-74
2023/02/24 03:53:30;;;;;;;;;;;;;;;7.72;77.27;100638.59;5015270;28;20294;-75
2023/02/24 03:56:28;;;;;;;;;;;;;;;8.05;75.10;100627.72;5034728;28;20290;-74
2023/02/24 03:59:26;;;;;;;;;;;;;;;8.03;75.81;100625.28;5018980;28;19914;-74
2023/02/24 04:02:27;;;;;;;;;;;;;;;8.06;75.88;100630.13;5028516;28;19913;-73
2023/02/24 04:05:22;;;;;;;;;;;;;;;8.07;74.65;100628.22;5012905;28;19913;-74
2023/02/24 04:08:22;;;;;;;;;;;;;;;8.13;74.50;100632.41;4996560;28;19913;-73
2023/02/24 04:11:15;;;;;;;;;;;;;;;7.54;74.88;100634.03;4999841;28;19917;-74
2023/02/24 04:14:13;;;;;;;;;;;;;;;6.79;78.92;100636.03;5030595;28;19917;-74
2023/02/24 04:17:06;;;;;;;;;;;;;;;7.13;78.01;100623.09;5020594;28;20305;-74
2023/02/24 04:19:59;;;;;;;;;;;;;;;7.36;77.04;100621.38;5018685;28;19917;-74
2023/02/24 04:22:56;;;;;;;;;;;;;;;7.62;75.64;100627.94;5015619;28;19913;-74
2023/02/24 04:25:49;;;;;;;;;;;;;;;7.61;75.90;100622.84;5027076;28;19913;-73
2023/02/24 04:28:41;;;;;;;;;;;;;;;7.61;76.39;100620.94;5030708;28;19913;-73
2023/02/24 04:31:34;;;;;;;;;;;;;;;7.83;77.00;100620.25;5027974;28;19947;-74
2023/02/24 04:34:27;;;;;;;;;;;;;;;7.92;75.19;100612.25;5018562;28;19952;-73
2023/02/24 04:37:21;;;;;;;;;;;;;;;7.99;75.90;100612.66;5015352;28;19913;-73
2023/02/24 04:40:13;;;;;;;;;;;;;;;7.95;76.16;100611.66;5020742;28;19913;-73
2023/02/24 04:43:07;;;;;;;;;;;;;;;8.17;74.88;100609.06;5015623;28;19921;-73
2023/02/24 04:45:54;;;;;;;;;;;;;;;8.11;75.60;100605.66;5015288;28;19914;-73
2023/02/24 04:48:46;;;;;;;;;;;;;;;8.25;74.61;100605.63;5018784;28;19913;-73
2023/02/24 04:51:39;;;;;;;;;;;;;;;8.28;73.22;100605.03;5016484;28;19917;-73
2023/02/24 04:54:32;;;;;;;;;;;;;;;8.27;73.44;100603.44;5019612;28;19913;-73
2023/02/24 04:57:25;;;;;;;;;;;;;;;8.30;74.34;100604.75;5017985;28;19914;-73
2023/02/24 05:00:23;;;;;;;;;;;;;;;8.31;74.13;100593.63;5016060;28;19917;-73
2023/02/24 05:03:17;;;;;;;;;;;;;;;8.37;74.52;100595.13;5008052;28;19913;-73
2023/02/24 05:06:12;;;;;;;;;;;;;;;8.29;75.39;100595.78;5016796;28;19913;-73
2023/02/24 05:09:12;;;;;;;;;;;;;;;8.30;75.47;100583.88;5014773;28;19914;-74
2023/02/24 05:12:04;;;;;;;;;;;;;;;8.29;75.12;100576.84;5017785;28;19921;-74
2023/02/24 05:14:56;;;;;;;;;;;;;;;8.23;75.08;100575.31;5015162;28;19913;-73
2023/02/24 05:17:49;;;;;;;;;;;;;;;8.23;76.42;100580.75;5019306;28;19913;-73
2023/02/24 05:23:49;;;;;;;;;;;;;;;8.29;75.87;100574.13;5019630;28;19925;-74
2023/02/24 05:26:42;;;;;;;;;;;;;;;8.48;75.20;100571.34;5009721;28;19913;-73
2023/02/24 05:29:34;;;;;;;;;;;;;;;8.65;75.00;100570.66;5015048;28;20294;-73
2023/02/24 05:32:26;;;;;;;;;;;;;;;8.67;75.22;100571.16;5016464;28;20534;-73
2023/02/24 05:35:18;;;;;;;;;;;;;;;8.54;75.62;100570.91;5016559;28;20289;-73
2023/02/24 05:38:10;;;;;;;;;;;;;;;8.71;74.92;100564.03;5014454;28;19913;-73
2023/02/24 05:41:06;;;;;;;;;;;;;;;8.79;74.97;100564.09;5017043;28;19914;-73
2023/02/24 05:43:58;;;;;;;;;;;;;;;8.80;75.27;100559.47;5014107;28;19921;-73
2023/02/24 05:46:50;;;;;;;;;;;;;;;8.86;74.66;100560.97;5012739;28;20453;-74
2023/02/24 05:49:42;;;;;;;;;;;;;;;8.94;74.20;100557.50;5023714;28;20873;-73
2023/02/24 05:52:34;;;;;;;;;;;;;;;8.97;74.53;100555.00;5025610;28;19913;-73
2023/02/24 05:55:25;;;;;;;;;;;;;;;8.98;74.83;100550.38;5014193;28;19913;-73
2023/02/24 05:58:17;;;;;;;;;;;;;;;9.07;74.35;100555.84;5019522;28;19913;-73
2023/02/24 06:01:14;;;;;;;;;;;;;;;9.02;75.17;100564.91;5014794;28;19913;-73
2023/02/24 06:04:07;;;;;;;;;;;;;;;9.17;74.37;100556.41;5018751;28;19913;-73
2023/02/24 06:06:57;;;;;;;;;;;;;;;9.11;75.37;100557.63;5015271;28;19913;-73
2023/02/24 06:09:52;;;;;;;;;;;;;;;9.15;75.32;100560.53;5026153;28;19917;-74
2023/02/24 06:12:44;;;;;;;;;;;;;;;9.15;74.97;100568.66;5017131;28;19913;-75
2023/02/24 06:15:34;;;;;;;;;;;;;;;9.16;74.80;100571.06;5025111;28;19913;-74
2023/02/24 06:18:26;;;;;;;;;;;;;;;9.15;74.50;100580.31;5020554;28;20374;-74
2023/02/24 06:21:18;;;;;;;;;;;;;;;9.30;74.58;100596.22;5015574;28;20302;-73
2023/02/24 06:24:07;;;;;;;;;;;;;;;9.23;75.28;100590.44;5014118;28;20385;-74
2023/02/24 06:27:08;;;;;;;;;;;;;;;9.23;76.38;100592.34;5018593;28;20305;-74
2023/02/24 06:30:00;;;;;;;;;;;;;;;9.31;75.47;100586.97;5017904;28;19913;-73
2023/02/24 06:32:52;;;;;;;;;;;;;;;9.59;74.08;100594.97;5023941;28;19913;-73
2023/02/24 06:35:44;;;;;;;;;;;;;;;9.57;74.45;100594.47;5027683;28;19916;-76
2023/02/24 06:38:37;;;;;;;;;;;;;;;9.63;73.90;100590.50;5009987;28;20306;-74
2023/02/24 06:41:30;;;;;;;;;;;;;;;9.62;73.77;100595.13;4996854;28;19918;-73
2023/02/24 06:44:23;;;;;;;;;;;;;;;9.47;74.81;100592.81;4995351;28;19913;-73
2023/02/24 06:47:16;;;;;;;;;;;;;;;9.14;76.00;100603.16;4993340;28;19913;-74
2023/02/24 06:50:08;;;;;;;;;;;;;;;8.68;79.39;100597.19;5016463;28;19918;-75
2023/02/24 06:53:00;;;;;;;;;;;;;;;8.54;80.19;100595.28;5021528;28;19913;-73
2023/02/24 06:55:50;;;;;;;;;;;;;;;8.46;80.51;100593.31;5029041;28;19913;-73
2023/02/24 06:58:42;;;;;;;;;;;;;;;9.04;78.78;100599.88;5018979;28;19914;-74
2023/02/24 07:01:34;;;;;;;;;;;;;;;9.09;76.93;100614.13;5017477;28;19914;-73
2023/02/24 07:04:26;;;;;;;;;;;;;;;8.75;78.65;100592.13;5021134;28;19914;-75
2023/02/24 07:07:18;;;;;;;;;;;;;;;8.66;78.55;100599.38;5014975;28;19913;-73
2023/02/24 07:10:08;;;;;;;;;;;;;;;8.34;80.33;100608.47;5012526;28;19917;-73
2023/02/24 07:12:58;;;;;;;;;;;;;;;8.58;79.79;100601.69;5021670;28;19913;-73
2023/02/24 07:15:54;;;;;;;;;;;;;;;8.22;80.34;100611.66;5029925;28;20305;-72
2023/02/24 07:18:47;;;;;;;;;;;;;;;8.08;81.68;100602.72;5024244;28;19913;-72
2023/02/24 07:21:43;;;;;;;;;;;;;;;8.25;82.76;100608.34;5034308;28;20116;-72
2023/02/24 07:24:39;;;;;;;;;;;;;;;9.03;77.69;100599.06;5032559;28;19913;-72
2023/02/24 07:27:31;;;;;;;;;;;;;;;9.20;76.83;100604.59;5030255;28;19921;-72
2023/02/24 07:30:23;;;;;;;;;;;;;;;9.19;77.50;100602.22;5025738;28;19918;-73
2023/02/24 07:33:16;;;;;;;;;;;;;;;8.80;79.09;100610.97;5021414;28;19913;-72
2023/02/24 07:36:09;;;;;;;;;;;;;;;9.17;78.65;100616.09;5038266;28;19913;-72
2023/02/24 07:39:01;;;;;;;;;;;;;;;9.24;76.50;100608.31;5033069;28;19913;-72
2023/02/24 07:41:54;;;;;;;;;;;;;;;8.58;80.19;100609.03;5038019;28;19913;-73
2023/02/24 07:44:47;;;;;;;;;;;;;;;8.42;81.02;100614.00;5033747;28;19917;-72
2023/02/24 07:47:39;;;;;;;;;;;;;;;8.50;80.90;100615.16;5032038;28;20389;-73
2023/02/24 07:50:31;;;;;;;;;;;;;;;8.77;79.55;100615.13;5038853;28;20370;-73
2023/02/24 07:53:23;;;;;;;;;;;;;;;9.12;78.40;100612.69;5031444;28;20409;-73
2023/02/24 07:56:17;;;;;;;;;;;;;;;9.60;75.98;100602.78;5030270;28;19976;-73
2023/02/24 07:59:09;;;;;;;;;;;;;;;9.25;76.06;100601.78;5018622;28;19913;-73
2023/02/24 08:02:00;;;;;;;;;;;;;;;9.19;77.33;100592.19;5025587;28;19913;-72
2023/02/24 08:04:55;;;;;;;;;;;;;;;9.01;77.66;100590.44;5026289;28;19913;-73
2023/02/24 08:07:48;;;;;;;;;;;;;;;8.75;79.45;100594.84;5018222;28;19914;-73
2023/02/24 08:10:41;;;;;;;;;;;;;;;9.09;79.21;100589.72;5025627;28;19917;-74
2023/02/24 08:13:36;;;;;;;;;;;;;;;9.81;75.15;100592.19;5014804;28;20373;-73
2023/02/24 08:16:38;;;;;;;;;;;;;;;9.74;74.46;100592.66;5022918;28;19917;-73
2023/02/24 08:19:42;;;;;;;;;;;;;;;9.12;78.41;100591.78;5030110;28;19913;-74
2023/02/24 08:22:36;;;;;;;;;;;;;;;9.61;77.08;100601.66;5031884;28;19917;-73
2023/02/24 08:25:34;;;;;;;;;;;;;;;9.98;75.43;100591.47;5027775;28;20313;-74
2023/02/24 08:28:26;;;;;;;;;;;;;;;10.29;73.99;100593.03;5017573;28;19913;-74
2023/02/24 08:31:18;;;;;;;;;;;;;;;10.24;74.98;100593.19;5014531;28;19921;-74
2023/02/24 08:34:07;;;;;;;;;;;;;;;10.55;73.57;100606.69;5018830;28;19913;-74
2023/02/24 08:36:56;;;;;;;;;;;;;;;10.71;72.57;100590.72;5018265;28;19917;-74
2023/02/24 08:39:46;;;;;;;;;;;;;;;10.65;73.79;100590.06;5028487;28;19917;-81
2023/02/24 08:42:38;;;;;;;;;;;;;;;10.40;73.76;100595.47;5026164;28;19917;-74
2023/02/24 08:45:34;;;;;;;;;;;;;;;10.15;74.91;100592.34;4997818;28;19913;-75
2023/02/24 08:48:31;;;;;;;;;;;;;;;10.46;74.83;100592.28;5020613;28;19913;-74
2023/02/24 08:51:28;;;;;;;;;;;;;;;11.01;71.99;100578.88;5032384;28;19917;-74
2023/02/24 08:54:25;;;;;;;;;;;;;;;11.44;70.18;100581.50;5035815;28;19913;-74
2023/02/24 08:57:17;;;;;;;;;;;;;;;10.94;71.93;100588.63;5039094;28;19913;-75
2023/02/24 09:00:09;;;;;;;;;;;;;;;11.35;71.43;100582.66;5025204;28;19913;-73
2023/02/24 09:02:58;;;;;;;;;;;;;;;11.83;69.49;100590.56;5026885;28;19917;-74
2023/02/24 09:05:47;;;;;;;;;;;;;;;11.91;68.88;100582.34;5027226;28;19917;-75
2023/02/24 09:08:41;;;;;;;;;;;;;;;11.82;68.74;100584.31;5020143;28;19913;-73
2023/02/24 09:11:33;;;;;;;;;;;;;;;11.71;69.94;100577.59;5020074;28;19917;-73
2023/02/24 09:14:25;;;;;;;;;;;;;;;11.71;70.33;100577.59;5017193;28;19913;-73
2023/02/24 09:17:14;;;;;;;;;;;;;;;11.84;69.57;100571.16;5021259;28;19913;-74
2023/02/24 09:20:55;;;;;;;;;;;;;;;11.34;71.63;100575.59;5021918;28;20349;-73
2023/02/24 09:23:44;;;;;;;;;;;;;;;11.42;72.02;100572.88;5019443;28;19913;-75
2023/02/24 09:26:45;;;;;;;;;;;;;;;11.39;72.71;100570.78;5017636;28;20385;-75
2023/02/24 09:29:48;;;;;;;;;;;;;;;11.43;72.58;100570.94;5014143;28;19921;-74
2023/02/24 09:32:39;;;;;;;;;;;;;;;11.93;70.25;100563.75;5012071;28;19918;-72
2023/02/24 09:35:35;;;;;;;;;;;;;;;12.26;69.90;100571.28;5014843;28;19914;-71
2023/02/24 09:39:08;;;;;;;;;;;;;;;12.20;69.11;100569.88;5018388;28;20294;-71
2023/02/24 09:45:10;;;;;;;;;;;;;;;12.24;70.78;100557.19;5026125;28;20376;-72
2023/02/24 09:48:03;;;;;;;;;;;;;;;12.76;68.48;100563.88;5022660;28;19913;-71
2023/02/24 09:51:04;;;;;;;;;;;;;;;12.09;72.11;100555.03;5035297;28;19917;-70
2023/02/24 09:53:55;;;;;;;;;;;;;;;12.59;70.24;100558.56;5016994;28;19913;-71
2023/02/24 09:57:09;;;;;;;;;;;;;;;12.60;69.21;100553.88;5013532;28;19917;-72
2023/02/24 10:03:40;;;;;;;118.85;59.42;;;;;;;13.33;68.73;100543.28;5016232;28;20430;-79
2023/02/24 10:06:47;;;;;;;178.65;56.92;;;;;;;13.73;66.70;100544.28;5012592;28;20037;-77
2023/02/24 10:10:18;;;;;;;129.43;55.15;;;;;;;13.07;67.61;100551.72;5007229;28;20042;-78
2023/02/24 10:13:15;;;;;;;117.63;55.58;;;;;;;12.96;68.76;100534.16;5001087;28;20499;-78
2023/02/24 10:16:17;;;;;;;118.00;57.55;;;;;;;13.38;67.15;100537.63;5001888;28;20046;-78
2023/02/24 10:19:23;;;;;;;142.68;57.15;;;;;;;13.26;68.52;100539.19;5023155;28;20034;-77
2023/02/24 10:22:34;;;;;;;117.95;55.70;;;;;;;13.43;67.92;100532.75;5029688;28;20038;-77
2023/02/24 10:25:52;;;;;;;114.22;54.45;;;;;;;14.52;66.05;100534.69;5027553;28;20413;-79
2023/02/24 10:28:57;;;;;;;129.55;50.78;;;;;;;14.11;64.50;100528.34;5024999;28;20494;-82
2023/02/24 10:31:56;;;;;;;111.60;52.53;;;;;;;13.64;66.51;100525.28;5014443;28;20045;-73
2023/02/24 10:34:50;;;;;;;106.35;50.10;;;;;;;12.74;71.21;100527.16;5028446;28;20049;-73
2023/02/24 10:37:45;;;;;;;102.88;49.50;;;;;;;12.53;72.13;100515.44;5021227;28;20410;-73
2023/02/24 10:40:48;;;;;;;110.30;50.70;;;;;;;13.45;68.65;100513.28;5023282;28;20045;-73
2023/02/24 10:43:53;;;;;;;138.52;52.38;;;;;;;13.11;69.73;100511.69;5002406;28;20030;-73
2023/02/24 10:46:49;;;;;;;124.53;51.70;;;;;;;12.34;73.01;100496.81;5017797;28;20050;-73
2023/02/24 10:50:00;;;;;;;116.65;53.80;;;;;;;12.43;74.02;100506.53;5012708;28;20030;-72
2023/02/24 10:56:00;;;;;;;111.85;53.80;;;;;;;13.31;70.54;100489.00;5030890;28;20418;-76
2023/02/24 10:59:19;;;;;;;115.25;52.30;;;;;;;13.78;68.37;100488.59;5031509;28;20656;-74
2023/02/24 11:02:33;;;;;;;109.38;51.90;;;;;;;13.31;69.43;100489.00;5037627;28;20389;-73
2023/02/24 11:05:39;;;;;;;104.75;49.50;;;;;;;13.49;69.05;100490.41;5036210;28;20037;-74
2023/02/24 11:08:38;;;;;;;102.70;51.55;;;;;;;13.39;69.77;100477.22;5017771;28;20495;-74
2023/02/24 11:17:13;;;;;;;113.13;51.58;;;;;;;13.93;67.65;100474.25;5011660;28;20042;-73
2023/02/24 11:18:28;;;;;;;110.00;52.20;;;;;;;14.40;65.89;100467.13;5023393;28;20046;-73
2023/02/24 11:21:24;;;;;;;101.97;47.92;;;;;;;15.04;63.79;100452.44;4998240;28;20035;-74
2023/02/24 11:24:21;;;;;;;102.03;47.50;;;;;;;14.22;65.16;100459.50;4995992;28;20046;-75
2023/02/24 11:27:14;;;;;;;97.13;49.80;;;;;;;13.94;66.42;100460.25;5014732;28;20041;-74
2023/02/24 11:30:16;;;;;;;101.88;46.17;;;;;;;14.58;64.74;100440.25;5026180;28;20038;-74
2023/02/24 11:33:30;;;;;;;90.70;45.35;;;;;;;15.06;63.20;100441.16;5023407;28;20049;-74
2023/02/24 11:36:35;;;;;;;82.40;43.67;;;;;;;15.49;61.43;100426.59;5019497;28;20034;-73
2023/02/24 11:39:59;;;;;;;89.35;44.42;;;;;;;15.13;62.27;100425.72;5000022;28;20046;-72
2023/02/24 11:43:07;;;;;;;85.40;44.88;;;;;;;14.60;64.08;100405.13;5015071;28;20035;-72
2023/02/24 11:46:19;;;;;;;94.60;46.38;;;;;;;14.43;64.78;100405.44;5020563;28;20418;-72
2023/02/24 11:49:31;;;;;;;93.50;44.72;;;;;;;13.77;66.60;100399.53;5021344;28;20418;-72
2023/02/24 11:52:46;;;;;;;84.25;44.95;;;;;;;13.78;66.56;100391.00;5018249;28;20042;-72
2023/02/24 11:55:43;;;;;;;105.57;44.80;;;;;;;13.84;66.38;100384.16;5018873;28;20433;-73
2023/02/24 11:58:41;;;;;;;110.00;49.88;;;;;;;13.72;67.52;100381.44;5014568;28;20038;-73
2023/02/24 12:01:43;;;;;;;91.70;47.20;;;;;;;13.61;68.12;100375.66;5015030;28;20034;-72
2023/02/24 12:04:57;;;;;;;97.00;45.95;;;;;;;13.88;66.78;100373.34;5018822;28;20037;-73
2023/02/24 12:08:03;;;;;;;86.55;45.17;;;;;;;14.00;66.62;100359.66;5015537;28;20418;-72
2023/02/24 12:11:38;;;;;;;85.50;44.47;;;;;;;14.03;65.55;100351.53;5032560;28;20042;-74
2023/02/24 12:14:52;;;;;;;95.70;42.75;;;;;;;13.98;65.02;100345.50;5030592;28;20042;-73
2023/02/24 12:18:07;;;;;;;79.82;42.08;;;;;;;13.76;66.05;100338.66;5036482;28;20037;-74
2023/02/24 12:21:13;;;;;;;82.78;41.22;;;;;;;13.80;66.06;100327.81;5024417;28;20049;-73
2023/02/24 12:24:11;;;;;;;81.70;41.92;;;;;;;13.66;66.23;100318.03;5022020;28;20038;-73
2023/02/24 12:27:16;;;;;;;86.53;42.03;;;;;;;13.77;66.11;100317.56;5028149;28;20037;-73
2023/02/24 12:30:32;;;;;;;58.63;30.92;;;;;;;13.78;65.44;100319.16;5017762;28;20038;-72
2023/02/24 12:33:33;;;;;;;77.30;40.30;;;;;;;13.77;65.27;100310.16;5017368;28;20030;-75
2023/02/24 12:36:45;;;;;;;77.47;39.55;;;;;;;13.71;65.21;100304.13;4997004;28;20050;-73
2023/02/24 12:40:06;;;;;;;89.10;42.15;;;;;;;13.85;65.03;100289.31;4994529;28;20046;-73
2023/02/24 12:43:31;;;;;;;82.57;41.50;;;;;;;13.94;64.43;100284.47;5018165;28;20402;-73
2023/02/24 12:46:40;;;;;;;70.25;39.05;;;;;;;13.80;64.25;100278.63;5017323;28;20042;-73
2023/02/24 12:49:39;;;;;;;78.72;41.25;;;;;;;13.74;65.03;100272.59;5016374;28;20041;-73
2023/02/24 12:52:43;;;;;;;70.20;38.13;;;;;;;13.90;64.38;100267.19;5019955;28;20037;-73
2023/02/24 12:55:41;;;;;;;73.05;39.88;;;;;;;14.14;63.92;100254.19;5019211;28;20503;-73
2023/02/24 12:58:40;;;;;;;74.82;38.35;;;;;;;14.32;63.29;100256.63;5018228;28;20042;-73
2023/02/24 13:01:51;;;;;;;73.55;39.42;;;;;;;14.42;62.87;100251.47;5017342;28;20033;-73
2023/02/24 13:05:05;;;;;;;77.82;38.80;;;;;;;14.53;62.43;100229.81;5026529;28;20037;-73
2023/02/24 13:08:17;;;;;;;72.32;36.55;;;;;;;14.51;62.21;100232.13;5021571;28;20037;-73
2023/02/24 13:11:33;;;;;;;73.70;37.55;;;;;;;14.69;61.63;100235.28;5026040;28;20494;-73
2023/02/24 13:14:35;;;;;;;48.33;26.45;;;;;;;14.57;61.41;100229.91;5019362;28;20042;-73
2023/02/24 13:17:30;;;;;;;79.50;33.72;;;;;;;14.66;60.58;100228.59;5014421;28;20042;-73
2023/02/24 13:20:29;;;;;;;;;;;;;;;14.39;61.26;100218.53;5015274;28;20042;-74
2023/02/24 13:23:24;;;;;;;83.38;36.65;;;;;;;14.53;60.84;100216.94;5013434;28;19913;-73
2023/02/24 13:26:24;;;;;;;64.25;36.20;;;;;;;14.56;60.61;100209.97;5015926;28;20041;-73
2023/02/24 13:29:19;;;;;;;65.22;34.40;;;;;;;14.51;60.75;100205.56;5013404;28;20071;-73
2023/02/24 13:32:27;;;;;;;64.80;34.92;;;;;;;14.50;60.69;100203.16;5018770;28;20042;-73
2023/02/24 13:35:26;;;;;;;67.07;32.67;;;;;;;14.33;60.93;100193.34;5012414;28;20053;-73
2023/02/24 13:39:04;;;;;;;61.58;33.60;;;;;;;14.37;60.67;100199.75;5016303;28;20394;-73
2023/02/24 13:42:29;;;;;;;60.10;33.30;;;;;;;14.54;60.40;100188.41;4961808;28;20032;-73
2023/02/24 13:45:24;;;;;;;55.25;29.90;;;;;;;14.52;60.26;100187.19;5008252;28;20034;-73
2023/02/24 13:48:56;;;;;;;61.10;31.92;;;;;;;14.48;59.99;100184.38;5017869;28;20042;-73
2023/02/24 13:51:46;;;;;;;68.60;33.03;;;;;;;14.53;60.25;100164.16;4986582;28;20403;-73
2023/02/24 13:54:53;;;;;;;58.40;29.70;;;;;;;14.54;59.07;100161.06;5018383;28;20041;-73
2023/02/24 13:58:06;;;;;;;55.45;29.73;;;;;;;14.43;59.60;100159.22;5034528;28;20406;-73
2023/02/24 14:01:11;;;;;;;56.25;30.63;;;;;;;14.43;60.46;100159.22;5012480;28;20422;-73
2023/02/24 14:04:19;;;;;;;64.13;31.40;;;;;;;14.38;60.72;100154.00;5032311;28;20482;-73
2023/02/24 14:07:35;;;;;;;61.33;34.53;;;;;;;14.32;61.05;100153.47;5032114;28;20041;-73
2023/02/24 14:10:32;;;;;;;60.25;32.00;;;;;;;14.41;61.23;100145.91;5033651;28;20041;-73
2023/02/24 14:13:28;;;;;;;68.43;33.95;;;;;;;14.42;60.97;100150.25;5032245;28;20041;-73
2023/02/24 14:16:23;;;;;;;62.97;32.30;;;;;;;14.37;61.06;100145.03;5030305;28;20398;-73
2023/02/24 14:19:18;;;;;;;62.63;32.10;;;;;;;14.46;60.92;100144.84;5024879;28;20037;-73
2023/02/24 14:22:21;;;;;;;51.95;26.50;;;;;;;14.52;60.48;100130.53;5028113;28;20433;-73
2023/02/24 14:25:16;;;;;;;69.38;33.55;;;;;;;14.53;60.44;100137.59;5033129;28;20041;-73
2023/02/24 14:28:23;;;;;;;77.43;35.25;;;;;;;14.45;61.00;100141.31;5036469;28;20073;-73
2023/02/24 14:31:23;;;;;;;59.75;32.30;;;;;;;14.45;60.90;100133.09;5033586;28;20414;-73
2023/02/24 14:34:20;;;;;;;62.53;33.30;;;;;;;14.34;60.72;100129.28;5036578;28;20042;-73
2023/02/24 14:37:16;;;;;;;78.38;35.00;;;;;;;14.44;60.92;100134.25;5028892;28;20406;-73
2023/02/24 14:40:18;;;;;;;82.38;33.75;;;;;;;14.38;60.77;100127.44;5017280;28;20486;-73
2023/02/24 14:43:18;;;;;;;72.30;33.45;;;;;;;14.45;60.29;100122.16;5025264;28;20034;-73
2023/02/24 14:46:12;;;;;;;72.25;31.40;;;;;;;14.41;60.52;100117.75;5032304;28;20046;-73
2023/02/24 14:49:13;;;;;;;65.93;32.10;;;;;;;14.42;60.74;100117.41;5036006;28;20041;-73
2023/02/24 14:52:09;;;;;;;58.45;31.27;;;;;;;14.37;60.45;100111.41;5028748;28;20033;-73
2023/02/24 14:55:22;;;;;;;54.67;29.42;;;;;;;14.51;59.68;100109.00;5019824;28;20041;-73
2023/02/24 14:58:19;;;;;;;60.40;30.77;;;;;;;14.22;60.41;100102.03;5020731;28;20034;-74